Time;durP1;ratioP1;P1;durP2;ratioP2;P2;SDS_P1;SDS_P2;PMS_P1;PMS_P2;Temp;Humidity;BMP_temperature;BMP_pressure;BME280_temperature;BME280_humidity;BME280_pressure;Samples;Min_cycle;Max_cycle;Signal;HPM_P1;HPM_P2
2023/05/13 00:00:01;;;;;;;2.95;2.53;;;;;;;;;;5095501;28;20452;-63
2023/05/13 00:02:27;;;;;;;3.00;2.70;;;;;;;;;;5095841;28;20028;-63
2023/05/13 00:04:53;;;;;;;3.58;2.78;;;;;;;;;;5095441;28;20509;-62
2023/05/13 00:07:18;;;;;;;3.30;3.00;;;;;;;;;;5095748;28;20020;-62
2023/05/13 00:09:44;;;;;;;2.88;2.65;;;;;;;;;;5095681;28;20103;-62
2023/05/13 00:12:09;;;;;;;5.10;2.70;;;;;;;;;;5095330;28;20031;-63
2023/05/13 00:14:35;;;;;;;3.80;3.20;;;;;;;;;;5095359;28;20490;-62
2023/05/13 00:17:03;;;;;;;2.75;2.55;;;;;;;;;;5095212;28;20024;-62
2023/05/13 00:19:29;;;;;;;2.60;2.40;;;;;;;;;;5094813;28;20035;-64
2023/05/13 00:21:55;;;;;;;3.38;2.70;;;;;;;;;;5094620;28;20032;-62
2023/05/13 00:24:20;;;;;;;3.20;2.90;;;;;;;;;;5095072;28;20510;-63
2023/05/13 00:26:46;;;;;;;2.95;2.53;;;;;;;;;;5095363;28;20028;-62
2023/05/13 00:29:12;;;;;;;2.72;2.53;;;;;;;;;;5095099;28;20028;-62
2023/05/13 00:31:37;;;;;;;2.60;2.40;;;;;;;;;;5095299;28;20124;-63
2023/05/13 00:34:03;;;;;;;3.42;2.63;;;;;;;;;;5093764;28;20024;-63
2023/05/13 00:36:28;;;;;;;2.70;2.50;;;;;;;;;;5095236;28;20047;-63
2023/05/13 00:38:54;;;;;;;2.70;2.50;;;;;;;;;;5094759;28;20050;-63
2023/05/13 00:41:20;;;;;;;2.45;2.25;;;;;;;;;;5094786;28;20036;-63
2023/05/13 00:43:46;;;;;;;2.95;2.67;;;;;;;;;;5094800;28;20024;-63
2023/05/13 00:46:13;;;;;;;2.65;2.45;;;;;;;;;;5094996;28;20491;-65
2023/05/13 00:48:38;;;;;;;3.17;2.88;;;;;;;;;;5095003;28;20028;-64
2023/05/13 00:51:04;;;;;;;2.58;2.38;;;;;;;;;;5095004;28;20463;-63
2023/05/13 00:53:32;;;;;;;3.72;2.70;;;;;;;;;;5093418;28;20049;-63
2023/05/13 00:55:57;;;;;;;3.42;2.90;;;;;;;;;;5094552;28;20463;-64
2023/05/13 00:58:23;;;;;;;3.10;2.80;;;;;;;;;;5094682;28;20108;-64
2023/05/13 01:01:03;;;;;;;3.13;2.90;;;;;;;;;;5094539;28;20028;-63
2023/05/13 01:03:49;;;;;;;4.28;2.67;;;;;;;;;;5094556;28;20016;-64
2023/05/13 01:06:31;;;;;;;3.40;2.58;;;;;;;;;;5094460;28;20103;-62
2023/05/13 01:09:06;;;;;;;3.55;2.85;;;;;;;;;;5094345;28;20491;-63
2023/05/13 01:11:36;;;;;;;2.42;2.22;;;;;;;;;;5094623;28;20032;-63
2023/05/13 01:14:05;;;;;;;;;;;;;;;;;;5094684;28;20107;-63
2023/05/13 01:16:40;;;;;;;2.88;2.60;;;;;;;;;;5094163;28;19962;-64
2023/05/13 01:19:22;;;;;;;3.42;2.65;;;;;;;;;;5094303;28;20067;-62
2023/05/13 01:21:54;;;;;;;2.55;2.35;;;;;;;;;;5094122;28;20020;-66
2023/05/13 01:24:19;;;;;;;3.17;2.53;;;;;;;;;;5094047;28;20541;-63
2023/05/13 01:26:45;;;;;;;3.08;2.78;;;;;;;;;;5094005;28;20032;-62
2023/05/13 01:29:10;;;;;;;2.95;2.53;;;;;;;;;;5094160;28;20016;-62
2023/05/13 01:31:38;;;;;;;2.60;2.40;;;;;;;;;;5093999;28;20555;-62
2023/05/13 01:34:04;;;;;;;2.75;2.50;;;;;;;;;;5093858;28;20031;-63
2023/05/13 01:36:31;;;;;;;3.15;2.85;;;;;;;;;;5093850;28;20031;-63
2023/05/13 01:38:58;;;;;;;2.80;2.60;;;;;;;;;;5093730;28;20059;-62
2023/05/13 01:41:23;;;;;;;3.08;2.50;;;;;;;;;;5093725;28;20446;-62
2023/05/13 01:43:49;;;;;;;2.63;2.42;;;;;;;;;;5093888;28;20111;-62
2023/05/13 01:46:14;;;;;;;2.50;2.30;;;;;;;;;;5093565;28;20051;-63
2023/05/13 01:48:40;;;;;;;2.80;2.60;;;;;;;;;;5093773;28;20368;-62
2023/05/13 01:51:07;;;;;;;2.70;2.50;;;;;;;;;;5093851;28;20367;-62
2023/05/13 01:53:32;;;;;;;2.70;2.50;;;;;;;;;;5093451;28;20016;-63
2023/05/13 01:55:58;;;;;;;2.63;2.42;;;;;;;;;;5093284;28;20024;-62
2023/05/13 01:58:24;;;;;;;2.92;2.72;;;;;;;;;;5093204;28;20030;-63
2023/05/13 02:00:49;;;;;;;2.90;2.47;;;;;;;;;;5093273;28;20024;-63
2023/05/13 02:03:15;;;;;;;2.67;2.47;;;;;;;;;;5093482;28;20073;-62
2023/05/13 02:05:40;;;;;;;2.72;2.53;;;;;;;;;;5093206;28;20115;-65
2023/05/13 02:08:06;;;;;;;2.92;2.70;;;;;;;;;;5093154;28;20025;-62
2023/05/13 02:10:32;;;;;;;3.05;2.60;;;;;;;;;;5093081;28;20055;-63
2023/05/13 02:12:57;;;;;;;2.15;2.05;;;;;;;;;;5093115;28;20052;-62
2023/05/13 02:15:23;;;;;;;2.75;2.55;;;;;;;;;;5093402;28;20472;-62
2023/05/13 02:17:48;;;;;;;3.30;2.72;;;;;;;;;;5093226;28;20569;-65
2023/05/13 02:20:14;;;;;;;2.58;2.38;;;;;;;;;;5092905;28;20097;-64
2023/05/13 02:22:40;;;;;;;2.70;2.50;;;;;;;;;;5093258;28;20027;-65
2023/05/13 02:25:05;;;;;;;3.05;2.75;;;;;;;;;;5093215;28;20425;-65
2023/05/13 02:27:31;;;;;;;2.85;2.53;;;;;;;;;;5092939;28;20368;-65
2023/05/13 02:29:57;;;;;;;3.08;2.72;;;;;;;;;;5092961;28;20043;-65
2023/05/13 02:32:22;;;;;;;3.05;2.25;;;;;;;;;;5092863;28;20038;-65
2023/05/13 02:34:48;;;;;;;2.60;2.40;;;;;;;;;;5093079;28;20016;-63
2023/05/13 02:37:13;;;;;;;2.80;2.53;;;;;;;;;;5092708;28;20379;-64
2023/05/13 02:39:38;;;;;;;3.10;2.80;;;;;;;;;;5092932;28;20065;-65
2023/05/13 02:42:04;;;;;;;2.58;2.38;;;;;;;;;;5092483;28;20455;-65
2023/05/13 02:44:30;;;;;;;2.50;2.30;;;;;;;;;;5092097;28;20046;-65
2023/05/13 02:46:55;;;;;;;2.63;2.42;;;;;;;;;;5092897;28;20459;-63
2023/05/13 02:49:21;;;;;;;2.60;2.40;;;;;;;;;;5092869;28;20372;-66
2023/05/13 02:51:47;;;;;;;2.70;2.50;;;;;;;;;;5092584;28;20032;-64
2023/05/13 02:54:12;;;;;;;2.85;2.65;;;;;;;;;;5092570;28;20074;-65
2023/05/13 02:56:38;;;;;;;2.70;2.50;;;;;;;;;;5092744;28;20024;-65
2023/05/13 02:59:03;;;;;;;2.38;2.17;;;;;;;;;;5092476;28;20421;-65
2023/05/13 03:01:29;;;;;;;3.10;2.80;;;;;;;;;;5092749;28;20088;-66
2023/05/13 03:03:54;;;;;;;2.50;2.30;;;;;;;;;;5092404;28;20020;-65
2023/05/13 03:06:20;;;;;;;2.60;2.40;;;;;;;;;;5092768;28;20039;-65
2023/05/13 03:08:45;;;;;;;4.07;2.25;;;;;;;;;;5092354;28;20064;-64
2023/05/13 03:11:11;;;;;;;3.78;2.50;;;;;;;;;;5092320;28;20024;-65
2023/05/13 03:13:36;;;;;;;3.78;2.50;;;;;;;;;;5092315;28;20060;-62
2023/05/13 03:16:02;;;;;;;2.60;2.40;;;;;;;;;;5092327;28;20039;-62
2023/05/13 03:18:30;;;;;;;2.63;2.42;;;;;;;;;;5092145;28;20032;-62
2023/05/13 03:20:55;;;;;;;2.45;2.25;;;;;;;;;;5092195;28;20472;-65
2023/05/13 03:23:21;;;;;;;2.60;2.40;;;;;;;;;;5092227;28;20039;-64
2023/05/13 03:25:46;;;;;;;3.45;2.38;;;;;;;;;;5092301;28;20024;-65
2023/05/13 03:28:12;;;;;;;3.03;2.38;;;;;;;;;;5092442;28;20384;-63
2023/05/13 03:30:37;;;;;;;3.83;2.30;;;;;;;;;;5092478;28;20486;-65
2023/05/13 03:33:03;;;;;;;2.47;2.20;;;;;;;;;;5092170;28;20027;-66
2023/05/13 03:35:29;;;;;;;2.80;2.50;;;;;;;;;;5092210;28;20021;-66
2023/05/13 03:37:54;;;;;;;2.50;2.30;;;;;;;;;;5092312;28;20020;-64
2023/05/13 03:40:20;;;;;;;2.60;2.40;;;;;;;;;;5092455;28;20349;-63
2023/05/13 03:42:45;;;;;;;2.60;2.40;;;;;;;;;;5091979;28;20071;-65
2023/05/13 03:45:11;;;;;;;2.70;2.50;;;;;;;;;;5092068;28;20024;-66
2023/05/13 03:47:40;;;;;;;2.75;2.55;;;;;;;;;;5092053;28;20110;-65
2023/05/13 03:50:06;;;;;;;3.00;2.70;;;;;;;;;;5092201;28;20036;-65
2023/05/13 03:52:31;;;;;;;2.85;2.42;;;;;;;;;;5090643;28;20024;-63
2023/05/13 03:54:57;;;;;;;3.00;2.75;;;;;;;;;;5093334;28;20028;-65
2023/05/13 03:57:22;;;;;;;3.85;2.58;;;;;;;;;;5096087;28;20031;-64
2023/05/13 03:59:48;;;;;;;2.58;2.38;;;;;;;;;;5095847;28;20118;-63
2023/05/13 04:02:13;;;;;;;2.75;2.30;;;;;;;;;;5095655;28;20016;-62
2023/05/13 04:04:39;;;;;;;2.90;2.30;;;;;;;;;;5095979;28;20028;-65
2023/05/13 04:07:04;;;;;;;2.40;2.20;;;;;;;;;;5095608;28;20046;-62
2023/05/13 04:09:30;;;;;;;2.60;2.13;;;;;;;;;;5095766;28;20020;-64
2023/05/13 04:11:55;;;;;;;2.88;2.60;;;;;;;;;;5095461;28;20069;-63
2023/05/13 04:14:21;;;;;;;2.75;2.55;;;;;;;;;;5095681;28;20039;-62
2023/05/13 04:16:47;;;;;;;3.10;2.80;;;;;;;;;;5095680;28;20024;-62
2023/05/13 04:19:12;;;;;;;2.88;2.25;;;;;;;;;;5095245;28;20054;-65
2023/05/13 04:21:38;;;;;;;2.88;2.40;;;;;;;;;;5095220;28;20483;-63
2023/05/13 04:24:03;;;;;;;2.53;2.33;;;;;;;;;;5095494;28;20023;-65
2023/05/13 04:26:29;;;;;;;2.92;2.42;;;;;;;;;;5095374;28;20368;-65
2023/05/13 04:28:55;;;;;;;2.53;2.33;;;;;;;;;;5095234;28;20380;-62
2023/05/13 04:31:20;;;;;;;2.60;2.40;;;;;;;;;;5095117;28;20020;-62
2023/05/13 04:33:46;;;;;;;2.50;2.30;;;;;;;;;;5094990;28;20511;-63
2023/05/13 04:36:11;;;;;;;2.40;2.20;;;;;;;;;;5095233;28;20047;-62
2023/05/13 04:38:37;;;;;;;3.03;2.40;;;;;;;;;;5095188;28;20444;-62
2023/05/13 04:41:03;;;;;;;2.60;2.40;;;;;;;;;;5094930;28;20047;-64
2023/05/13 04:43:28;;;;;;;3.13;2.83;;;;;;;;;;5095160;28;20365;-66
2023/05/13 04:45:54;;;;;;;2.95;2.75;;;;;;;;;;5094622;28;20432;-66
2023/05/13 04:48:20;;;;;;;3.35;2.40;;;;;;;;;;5094768;28;20032;-63
2023/05/13 04:50:46;;;;;;;2.63;2.42;;;;;;;;;;5094684;28;20024;-62
2023/05/13 04:53:12;;;;;;;2.65;2.28;;;;;;;;;;5094872;28;20074;-62
2023/05/13 04:55:37;;;;;;;2.65;2.45;;;;;;;;;;5094508;28;20452;-62
2023/05/13 04:58:03;;;;;;;2.40;2.20;;;;;;;;;;5094750;28;20107;-65
2023/05/13 05:00:28;;;;;;;2.40;2.20;;;;;;;;;;5094465;28;20631;-63
2023/05/13 05:02:55;;;;;;;2.80;2.60;;;;;;;;;;5094682;28;20086;-64
2023/05/13 05:05:21;;;;;;;5.63;2.75;;;;;;;;;;5094681;28;20106;-62
2023/05/13 05:07:46;;;;;;;2.42;2.22;;;;;;;;;;5092512;28;20555;-63
2023/05/13 05:10:14;;;;;;;2.60;2.40;;;;;;;;;;5094517;28;20093;-65
2023/05/13 05:12:40;;;;;;;6.95;2.40;;;;;;;;;;5094238;28;20375;-65
2023/05/13 05:15:10;;;;;;;2.45;2.25;;;;;;;;;;5094124;28;20073;-62
2023/05/13 05:17:35;;;;;;;2.47;2.28;;;;;;;;;;5094207;28;20395;-64
2023/05/13 05:20:01;;;;;;;2.50;2.30;;;;;;;;;;5093970;28;20035;-66
2023/05/13 05:22:29;;;;;;;2.38;2.17;;;;;;;;;;5094184;28;20028;-63
2023/05/13 05:24:54;;;;;;;2.65;2.42;;;;;;;;;;5093961;28;20476;-63
2023/05/13 05:27:20;;;;;;;2.63;2.25;;;;;;;;;;5092693;28;20028;-62
2023/05/13 05:29:46;;;;;;;3.30;2.22;;;;;;;;;;5088252;28;20361;-65
2023/05/13 05:32:11;;;;;;;2.95;2.50;;;;;;;;;;5089989;28;20028;-65
2023/05/13 05:34:37;;;;;;;2.40;2.20;;;;;;;;;;5093717;28;20019;-64
2023/05/13 05:37:03;;;;;;;2.70;2.50;;;;;;;;;;5094056;28;20108;-62
2023/05/13 05:39:28;;;;;;;2.63;2.40;;;;;;;;;;5093559;28;20047;-63
2023/05/13 05:41:54;;;;;;;2.08;1.98;;;;;;;;;;5093672;28;20074;-63
2023/05/13 05:44:19;;;;;;;2.55;2.35;;;;;;;;;;5093570;28;20391;-62
2023/05/13 05:46:45;;;;;;;2.42;2.22;;;;;;;;;;5093651;28;20031;-65
2023/05/13 05:49:10;;;;;;;4.22;2.50;;;;;;;;;;5093362;28;20032;-64
2023/05/13 05:51:36;;;;;;;2.53;2.10;;;;;;;;;;5093797;28;20060;-62
2023/05/13 05:54:01;;;;;;;3.35;2.40;;;;;;;;;;5092139;28;20032;-61
2023/05/13 05:56:27;;;;;;;2.40;2.20;;;;;;;;;;5092590;28;20039;-65
2023/05/13 05:58:52;;;;;;;2.65;2.35;;;;;;;;;;5093180;28;20034;-65
2023/05/13 06:01:18;;;;;;;2.55;2.35;;;;;;;;;;5093380;28;20020;-64
2023/05/13 06:03:44;;;;;;;2.53;2.33;;;;;;;;;;5093312;28;20048;-62
2023/05/13 06:06:10;;;;;;;2.40;2.20;;;;;;;;;;5093527;28;20024;-62
2023/05/13 06:08:35;;;;;;;2.40;2.20;;;;;;;;;;5093132;28;20109;-63
2023/05/13 06:11:01;;;;;;;2.35;2.17;;;;;;;;;;5093167;28;20047;-64
2023/05/13 06:13:26;;;;;;;2.40;2.20;;;;;;;;;;5093367;28;20053;-62
2023/05/13 06:15:53;;;;;;;2.20;2.10;;;;;;;;;;5093341;28;20099;-65
2023/05/13 06:18:19;;;;;;;2.40;2.20;;;;;;;;;;5089819;28;20391;-65
2023/05/13 06:20:44;;;;;;;2.33;2.15;;;;;;;;;;5091633;28;20020;-63
2023/05/13 06:23:10;;;;;;;2.33;2.13;;;;;;;;;;5092248;28;20412;-64
2023/05/13 06:25:35;;;;;;;2.50;2.30;;;;;;;;;;5092492;28;20024;-63
2023/05/13 06:28:01;;;;;;;2.50;2.30;;;;;;;;;;5092631;28;20024;-65
2023/05/13 06:30:27;;;;;;;2.67;2.47;;;;;;;;;;5092690;28;20077;-65
2023/05/13 06:32:53;;;;;;;2.47;2.28;;;;;;;;;;5092577;28;20049;-66
2023/05/13 06:35:19;;;;;;;2.40;2.20;;;;;;;;;;5093007;28;20089;-64
2023/05/13 06:37:45;;;;;;;2.60;2.40;;;;;;;;;;5092845;28;20503;-63
2023/05/13 06:40:11;;;;;;;2.95;2.33;;;;;;;;;;5092880;28;20365;-65
2023/05/13 06:42:39;;;;;;;3.30;2.10;;;;;;;;;;5092467;28;20403;-66
2023/05/13 06:45:07;;;;;;;2.47;2.28;;;;;;;;;;5092689;28;20024;-63
2023/05/13 06:47:32;;;;;;;2.53;2.33;;;;;;;;;;5092558;28;20024;-65
2023/05/13 06:49:58;;;;;;;2.30;2.10;;;;;;;;;;5092602;28;20430;-66
2023/05/13 06:52:23;;;;;;;2.28;2.08;;;;;;;;;;5091493;28;20024;-65
2023/05/13 06:54:49;;;;;;;2.40;2.20;;;;;;;;;;5092543;28;20374;-65
2023/05/13 06:57:14;;;;;;;2.40;2.20;;;;;;;;;;5092518;28;20097;-62
2023/05/13 06:59:40;;;;;;;2.60;2.40;;;;;;;;;;5092658;28;20184;-62
2023/05/13 07:02:08;;;;;;;2.38;2.17;;;;;;;;;;5091907;28;20057;-64
2023/05/13 07:04:34;;;;;;;2.67;2.40;;;;;;;;;;5092322;28;20483;-62
2023/05/13 07:06:59;;;;;;;2.67;2.40;;;;;;;;;;5092294;28;20032;-63
2023/05/13 07:09:26;;;;;;;2.70;2.50;;;;;;;;;;5092466;28;20028;-65
2023/05/13 07:11:51;;;;;;;2.40;2.20;;;;;;;;;;5092237;28;20024;-64
2023/05/13 07:14:17;;;;;;;2.38;2.20;;;;;;;;;;5092241;28;20107;-65
2023/05/13 07:16:43;;;;;;;2.60;2.25;;;;;;;;;;5092290;28;20036;-63
2023/05/13 07:19:08;;;;;;;2.45;2.25;;;;;;;;;;5092487;28;20036;-62
2023/05/13 07:21:34;;;;;;;2.20;2.10;;;;;;;;;;5092489;28;20122;-63
2023/05/13 07:24:01;;;;;;;4.63;2.38;;;;;;;;;;5092289;28;20055;-63
2023/05/13 07:26:26;;;;;;;2.63;2.22;;;;;;;;;;5092268;28;20093;-65
2023/05/13 07:28:52;;;;;;;2.47;2.28;;;;;;;;;;5092503;28;20463;-64
2023/05/13 07:31:17;;;;;;;2.72;2.42;;;;;;;;;;5096119;28;20026;-65
2023/05/13 07:33:43;;;;;;;2.75;2.35;;;;;;;;;;5096412;28;20103;-64
2023/05/13 07:36:10;;;;;;;4.35;2.90;;;;;;;;;;5096136;28;20365;-63
2023/05/13 07:38:36;;;;;;;2.75;2.40;;;;;;;;;;5096248;28;20028;-62
2023/05/13 07:41:01;;;;;;;3.47;2.60;;;;;;;;;;5094502;28;20548;-63
2023/05/13 07:43:27;;;;;;;2.65;2.45;;;;;;;;;;5096134;28;20379;-65
2023/05/13 07:45:52;;;;;;;3.50;2.55;;;;;;;;;;5095967;28;20486;-65
2023/05/13 07:48:18;;;;;;;4.32;2.53;;;;;;;;;;5096187;28;20035;-63
2023/05/13 07:50:44;;;;;;;4.28;2.40;;;;;;;;;;5096059;28;20035;-62
2023/05/13 07:53:10;;;;;;;3.13;2.50;;;;;;;;;;5095843;28;20020;-64
2023/05/13 07:55:36;;;;;;;2.85;2.40;;;;;;;;;;5096031;28;20024;-63
2023/05/13 07:58:01;;;;;;;2.80;2.40;;;;;;;;;;5095780;28;20024;-62
2023/05/13 08:00:27;;;;;;;4.72;2.40;;;;;;;;;;5094384;28;20028;-63
2023/05/13 08:02:54;;;;;;;4.07;2.60;;;;;;;;;;5095673;28;20105;-65
2023/05/13 08:05:20;;;;;;;2.72;2.28;;;;;;;;;;5095524;28;20475;-65
2023/05/13 08:07:46;;;;;;;2.75;2.30;;;;;;;;;;5095838;28;20062;-62
2023/05/13 08:10:11;;;;;;;2.65;2.17;;;;;;;;;;5095702;28;20377;-62
2023/05/13 08:12:39;;;;;;;2.47;2.28;;;;;;;;;;5095742;28;20024;-63
2023/05/13 08:15:06;;;;;;;5.28;2.40;;;;;;;;;;5095429;28;20029;-64
2023/05/13 08:17:32;;;;;;;2.78;2.25;;;;;;;;;;5095658;28;20032;-63
2023/05/13 08:19:57;;;;;;;2.67;2.40;;;;;;;;;;5095439;28;20387;-63
2023/05/13 08:22:24;;;;;;;2.85;2.45;;;;;;;;;;5095640;28;20474;-62
2023/05/13 08:24:49;;;;;;;5.72;2.55;;;;;;;;;;5095241;28;20062;-65
2023/05/13 08:27:15;;;;;;;2.50;2.30;;;;;;;;;;5095162;28;20032;-63
2023/05/13 08:29:41;;;;;;;2.70;2.40;;;;;;;;;;5095468;28;20040;-64
2023/05/13 08:32:06;;;;;;;4.97;2.92;;;;;;;;;;5095116;28;20432;-65
2023/05/13 08:34:32;;;;;;;3.67;2.40;;;;;;;;;;5095342;28;20020;-63
2023/05/13 08:36:58;;;;;;;2.67;2.38;;;;;;;;;;5095008;28;20028;-64
2023/05/13 08:39:23;;;;;;;2.65;2.45;;;;;;;;;;5095099;28;20036;-64
2023/05/13 08:41:51;;;;;;;3.90;2.45;;;;;;;;;;5093664;28;20122;-65
2023/05/13 08:44:21;;;;;;;2.47;2.20;;;;;;;;;;5095195;28;20048;-65
2023/05/13 08:46:52;;;;;;;3.97;2.42;;;;;;;;;;5094741;28;20023;-65
2023/05/13 08:49:18;;;;;;;3.72;2.60;;;;;;;;;;5094809;28;20028;-62
2023/05/13 08:51:45;;;;;;;4.20;2.60;;;;;;;;;;5094745;28;20024;-63
2023/05/13 08:54:11;;;;;;;3.42;2.55;;;;;;;;;;5094612;28;20483;-64
2023/05/13 08:56:37;;;;;;;3.33;2.30;;;;;;;;;;5094853;28;20414;-62
2023/05/13 08:59:02;;;;;;;2.90;2.53;;;;;;;;;;5094787;28;20081;-62
2023/05/13 09:01:29;;;;;;;2.90;2.70;;;;;;;;;;5094774;28;20020;-63
2023/05/13 09:04:03;;;;;;;3.33;2.58;;;;;;;;;;5094799;28;20046;-63
2023/05/13 09:06:28;;;;;;;5.47;2.80;;;;;;;;;;5094764;28;20376;-62
2023/05/13 09:08:55;;;;;;;3.22;2.42;;;;;;;;;;5094729;28;20031;-62
2023/05/13 09:11:20;;;;;;;3.10;2.60;;;;;;;;;;5094666;28;20027;-63
2023/05/13 09:13:58;;;;;;;4.07;2.72;;;;;;;;;;5094588;28;20024;-61
2023/05/13 09:16:25;;;;;;;3.10;2.60;;;;;;;;;;5093763;28;20387;-63
2023/05/13 09:18:57;;;;;;;4.63;2.90;;;;;;;;;;5094361;28;20036;-63
2023/05/13 09:21:23;;;;;;;3.35;2.60;;;;;;;;;;5094429;28;20030;-64
2023/05/13 09:23:49;;;;;;;5.60;2.70;;;;;;;;;;5094007;28;20024;-64
2023/05/13 09:26:28;;;;;;;3.47;2.90;;;;;;;;;;5093940;28;20020;-65
2023/05/13 09:29:28;;;;;;;3.67;3.08;;;;;;;;;;5094364;28;20418;-64
2023/05/13 09:32:00;;;;;;;3.80;2.95;;;;;;;;;;5093974;28;20028;-62
2023/05/13 09:34:33;;;;;;;2.95;2.65;;;;;;;;;;5094148;28;20110;-62
2023/05/13 09:37:06;;;;;;;3.38;2.80;;;;;;;;;;5093793;28;20024;-62
2023/05/13 09:39:37;;;;;;;2.90;2.60;;;;;;;;;;5075678;28;20039;-61
2023/05/13 09:42:03;;;;;;;3.08;2.60;;;;;;;;;;5093666;28;20047;-64
2023/05/13 09:44:29;;;;;;;2.83;2.47;;;;;;;;;;5094017;28;20036;-64
2023/05/13 09:46:54;;;;;;;4.00;2.63;;;;;;;;;;5093881;28;20024;-65
2023/05/13 09:49:25;;;;;;;4.22;2.67;;;;;;;;;;5093971;28;20459;-62
2023/05/13 09:51:51;;;;;;;3.70;2.70;;;;;;;;;;5093661;28;20024;-62
2023/05/13 09:54:16;;;;;;;3.75;2.80;;;;;;;;;;5093526;28;20028;-64
2023/05/13 09:56:42;;;;;;;3.92;2.90;;;;;;;;;;5093407;28;20028;-61
2023/05/13 09:59:08;;;;;;;3.42;2.50;;;;;;;;;;5093640;28;20028;-64
2023/05/13 10:01:35;;;;;;;4.03;2.75;;;;;;;;;;5093438;28;20098;-62
2023/05/13 10:04:01;;;;;;;3.05;2.80;;;;;;;;;;5093378;28;20024;-64
2023/05/13 10:06:29;;;;;;;3.67;2.78;;;;;;;;;;5093358;28;20016;-63
2023/05/13 10:08:57;;;;;;;3.22;2.60;;;;;;;;;;5093287;28;20110;-62
2023/05/13 10:11:24;;;;;;;2.97;2.67;;;;;;;;;;5093211;28;20024;-64
2023/05/13 10:13:54;;;;;;;3.00;2.53;;;;;;;;;;5093186;28;20471;-62
2023/05/13 10:16:21;;;;;;;4.38;2.95;;;;;;;;;;5093116;28;20050;-65
2023/05/13 10:18:47;;;;;;;4.65;2.85;;;;;;;;;;5093035;28;20032;-65
2023/05/13 10:21:13;;;;;;;3.33;2.90;;;;;;;;;;5093026;28;20032;-65
2023/05/13 10:23:38;;;;;;;3.67;3.10;;;;;;;;;;5092992;28;20020;-65
2023/05/13 10:26:06;;;;;;;5.03;2.70;;;;;;;;;;5093261;28;20016;-64
2023/05/13 10:28:33;;;;;;;3.55;2.90;;;;;;;;;;5092914;28;20342;-65
2023/05/13 10:30:58;;;;;;;4.72;2.80;;;;;;;;;;5092856;28;20016;-65
2023/05/13 10:33:26;;;;;;;3.10;2.70;;;;;;;;;;5093104;28;20090;-64
2023/05/13 10:36:28;;;;;;;3.08;2.42;;;;;;;;;;5093124;28;20035;-64
2023/05/13 10:39:16;;;;;;;2.97;2.60;;;;;;;;;;5092666;28;20035;-64
2023/05/13 10:41:54;;;;;;;3.38;3.00;;;;;;;;;;5092547;28;20040;-64
2023/05/13 10:44:20;;;;;;;3.17;2.92;;;;;;;;;;5093278;28;20028;-63
2023/05/13 10:46:47;;;;;;;3.03;2.83;;;;;;;;;;5092738;28;20491;-64
2023/05/13 10:49:16;;;;;;;3.28;2.70;;;;;;;;;;5092675;28;20024;-65
2023/05/13 10:51:48;;;;;;;3.50;2.90;;;;;;;;;;5092863;28;20372;-64
2023/05/13 10:54:22;;;;;;;3.83;2.63;;;;;;;;;;5092539;28;20089;-63
2023/05/13 10:56:57;;;;;;;4.13;2.72;;;;;;;;;;5092546;28;20055;-65
2023/05/13 10:59:24;;;;;;;3.00;2.70;;;;;;;;;;5092716;28;20040;-63
2023/05/13 11:01:49;;;;;;;5.35;2.90;;;;;;;;;;5092433;28;20502;-64
2023/05/13 11:04:18;;;;;;;2.92;2.60;;;;;;;;;;5092129;28;20039;-65
2023/05/13 11:06:45;;;;;;;4.00;2.67;;;;;;;;;;5092462;28;20028;-64
2023/05/13 11:09:14;;;;;;;3.00;2.70;;;;;;;;;;5092401;28;20602;-62
2023/05/13 11:11:40;;;;;;;2.88;2.60;;;;;;;;;;5092612;28;20434;-65
2023/05/13 11:14:13;;;;;;;2.92;2.63;;;;;;;;;;5092353;28;20070;-64
2023/05/13 11:16:59;;;;;;;3.28;2.65;;;;;;;;;;5092314;28;20028;-64
2023/05/13 11:19:30;;;;;;;3.83;2.72;;;;;;;;;;5092253;28;20082;-64
2023/05/13 11:22:35;;;;;;;4.40;3.20;;;;;;;;;;5092576;28;20028;-63
2023/05/13 11:25:05;;;;;;;3.58;2.92;;;;;;;;;;5090690;28;20111;-64
2023/05/13 11:27:39;;;;;;;4.88;2.95;;;;;;;;;;5092300;28;20465;-65
2023/05/13 11:30:07;;;;;;;3.17;2.63;;;;;;;;;;5092256;28;20062;-65
2023/05/13 11:32:55;;;;;;;3.50;2.90;;;;;;;;;;5092452;28;20030;-65
2023/05/13 11:35:28;;;;;;;3.08;2.65;;;;;;;;;;5092512;28;20032;-65
2023/05/13 11:37:55;;;;;;;3.33;2.63;;;;;;;;;;5092177;28;20024;-64
2023/05/13 11:40:25;;;;;;;3.65;2.80;;;;;;;;;;5092010;28;20032;-64
2023/05/13 11:42:51;;;;;;;3.05;2.75;;;;;;;;;;5091901;28;20399;-65
2023/05/13 11:45:17;;;;;;;3.80;3.00;;;;;;;;;;5092140;28;20034;-64
2023/05/13 11:47:43;;;;;;;4.50;2.88;;;;;;;;;;5092044;28;20059;-64
2023/05/13 11:50:22;;;;;;;3.17;2.88;;;;;;;;;;5092294;28;20028;-64
2023/05/13 11:52:56;;;;;;;3.33;2.67;;;;;;;;;;5092102;28;20031;-63
2023/05/13 11:55:29;;;;;;;3.53;2.85;;;;;;;;;;5092351;28;20356;-64
2023/05/13 11:57:55;;;;;;;2.88;2.60;;;;;;;;;;5092001;28;20503;-65
2023/05/13 12:00:38;;;;;;;4.20;2.80;;;;;;;;;;5091842;28;20035;-64
2023/05/13 12:03:10;;;;;;;5.00;3.40;;;;;;;;;;5092230;28;20035;-64
2023/05/13 12:05:36;;;;;;;3.53;2.90;;;;;;;;;;5092477;28;20062;-65
2023/05/13 12:08:01;;;;;;;3.90;2.88;;;;;;;;;;5091874;28;20020;-61
2023/05/13 12:10:27;;;;;;;3.63;3.05;;;;;;;;;;5092109;28;20037;-65
2023/05/13 12:12:53;;;;;;;3.30;2.97;;;;;;;;;;5092150;28;20479;-65
2023/05/13 12:15:20;;;;;;;3.30;2.88;;;;;;;;;;5092064;28;20020;-65
2023/05/13 12:17:48;;;;;;;3.05;2.75;;;;;;;;;;5093060;28;20024;-65
2023/05/13 12:20:23;;;;;;;3.50;3.00;;;;;;;;;;5095560;28;20031;-62
2023/05/13 12:22:51;;;;;;;3.10;2.63;;;;;;;;;;5095416;28;20066;-65
2023/05/13 12:25:45;;;;;;;4.88;3.45;;;;;;;;;;5094310;28;20024;-65
2023/05/13 12:28:17;;;;;;;5.00;2.80;;;;;;;;;;5095487;28;20349;-63
2023/05/13 12:30:50;;;;;;;3.17;2.75;;;;;;;;;;5095458;28;20349;-64
2023/05/13 12:33:18;;;;;;;4.68;3.05;;;;;;;;;;5095415;28;20031;-63
2023/05/13 12:35:47;;;;;;;4.07;3.00;;;;;;;;;;5093880;28;20086;-65
2023/05/13 12:38:20;;;;;;;3.78;3.10;;;;;;;;;;5094980;28;20050;-64
2023/05/13 12:40:47;;;;;;;4.03;2.92;;;;;;;;;;5094750;28;20032;-62
2023/05/13 12:43:15;;;;;;;3.17;2.83;;;;;;;;;;5095056;28;20028;-64
2023/05/13 12:45:42;;;;;;;5.05;3.33;;;;;;;;;;5095134;28;20046;-64
2023/05/13 12:48:07;;;;;;;4.93;3.10;;;;;;;;;;5094882;28;20020;-63
2023/05/13 12:50:33;;;;;;;3.30;3.00;;;;;;;;;;5094717;28;20107;-64
2023/05/13 12:52:59;;;;;;;3.70;3.00;;;;;;;;;;5094741;28;20028;-64
2023/05/13 12:55:28;;;;;;;3.58;2.80;;;;;;;;;;5094685;28;20032;-64
2023/05/13 12:57:56;;;;;;;3.43;2.90;;;;;;;;;;5094651;28;20578;-65
2023/05/13 13:00:22;;;;;;;3.40;3.10;;;;;;;;;;5094476;28;20295;-65
2023/05/13 13:02:48;;;;;;;2.95;2.75;;;;;;;;;;5093299;28;20028;-64
2023/05/13 13:05:14;;;;;;;4.22;2.78;;;;;;;;;;5094514;28;20047;-64
2023/05/13 13:07:41;;;;;;;3.63;2.88;;;;;;;;;;5094469;28;20035;-66
2023/05/13 13:10:07;;;;;;;3.78;3.28;;;;;;;;;;5094398;28;20020;-64
2023/05/13 13:12:33;;;;;;;3.50;3.10;;;;;;;;;;5094610;28;20050;-65
2023/05/13 13:14:58;;;;;;;4.60;3.67;;;;;;;;;;5094618;28;20024;-65
2023/05/13 13:17:24;;;;;;;3.65;3.00;;;;;;;;;;5094591;28;20016;-65
2023/05/13 13:19:50;;;;;;;4.38;2.92;;;;;;;;;;5094107;28;20028;-65
2023/05/13 13:22:15;;;;;;;3.80;2.97;;;;;;;;;;5092946;28;20028;-64
2023/05/13 13:24:41;;;;;;;3.65;2.88;;;;;;;;;;5094186;28;20126;-65
2023/05/13 13:27:06;;;;;;;4.10;3.00;;;;;;;;;;5092397;28;20027;-65
2023/05/13 13:29:32;;;;;;;4.03;2.88;;;;;;;;;;5094002;28;20077;-65
2023/05/13 13:31:57;;;;;;;4.70;3.20;;;;;;;;;;5093089;28;20077;-65
2023/05/13 13:34:23;;;;;;;3.80;2.92;;;;;;;;;;5094013;28;20065;-65
2023/05/13 13:36:48;;;;;;;3.20;2.83;;;;;;;;;;5092665;28;20036;-63
2023/05/13 13:39:14;;;;;;;3.05;2.80;;;;;;;;;;5093759;28;20035;-65
2023/05/13 13:41:39;;;;;;;3.22;2.92;;;;;;;;;;5093629;28;20044;-65
2023/05/13 13:44:05;;;;;;;4.70;3.17;;;;;;;;;;5093747;28;20027;-64
2023/05/13 13:46:30;;;;;;;3.40;2.85;;;;;;;;;;5093979;28;20032;-65
2023/05/13 13:48:56;;;;;;;4.80;3.10;;;;;;;;;;5093633;28;20422;-65
2023/05/13 13:51:21;;;;;;;4.32;3.35;;;;;;;;;;5093860;28;20032;-64
2023/05/13 13:53:48;;;;;;;4.00;3.08;;;;;;;;;;5093837;28;20467;-63
2023/05/13 13:56:14;;;;;;;4.00;3.25;;;;;;;;;;5094119;28;20136;-64
2023/05/13 13:58:39;;;;;;;3.33;2.97;;;;;;;;;;5093473;28;20024;-62
2023/05/13 14:01:05;;;;;;;4.63;3.10;;;;;;;;;;5093380;28;20016;-64
2023/05/13 14:03:30;;;;;;;2.92;2.63;;;;;;;;;;5093382;28;20027;-64
2023/05/13 14:05:56;;;;;;;3.17;2.88;;;;;;;;;;5093367;28;20024;-64
2023/05/13 14:08:22;;;;;;;4.15;3.17;;;;;;;;;;5093566;28;20039;-64
2023/05/13 14:10:47;;;;;;;3.40;3.10;;;;;;;;;;5093248;28;20016;-63
2023/05/13 14:13:13;;;;;;;3.20;2.90;;;;;;;;;;5093219;28;20047;-63
2023/05/13 14:15:38;;;;;;;3.78;3.28;;;;;;;;;;5093115;28;20039;-63
2023/05/13 14:18:07;;;;;;;3.88;2.97;;;;;;;;;;5093372;28;20032;-65
2023/05/13 14:20:34;;;;;;;4.63;3.15;;;;;;;;;;5093098;28;20440;-64
2023/05/13 14:23:00;;;;;;;3.97;3.10;;;;;;;;;;5093240;28;20028;-64
2023/05/13 14:25:26;;;;;;;3.30;2.95;;;;;;;;;;5093232;28;20085;-63
2023/05/13 14:27:52;;;;;;;3.67;3.20;;;;;;;;;;5093090;28;20059;-64
2023/05/13 14:30:18;;;;;;;3.75;3.30;;;;;;;;;;5093179;28;20554;-64
2023/05/13 14:32:44;;;;;;;3.28;2.97;;;;;;;;;;5093163;28;20035;-62
2023/05/13 14:35:13;;;;;;;3.75;3.30;;;;;;;;;;5092849;28;20503;-63
2023/05/13 14:37:40;;;;;;;3.97;3.37;;;;;;;;;;5092815;28;20494;-63
2023/05/13 14:40:06;;;;;;;3.75;2.90;;;;;;;;;;5092119;28;20287;-63
2023/05/13 14:42:31;;;;;;;4.70;3.28;;;;;;;;;;5092542;28;20044;-61